• Join FlightAware (Why Join?)
  • Login
  • US Flag 
Trick or treat! (Boo!!) 
09:38AM EDT


 

Airport Tracker/Info


-or-


 

Live Flight TrackerFlight Track Log ✈ IWY5203 ✈ 12-Jul-2013 ✈ MBPV / PLS - MDSD / SDQ

Flight Track Log - Related Links

Times and Time Zones

All times are in EDT time to prevent confusion due to time zone crossing. See the IWY5203 flight status page for this flight to view local times or setup timezone preferences in your user account.

Time Position Orientation Groundspeed Altitude Reporting Facility
EDT Latitude Longitude Course Direction KTS MPH feet Rate Location/Type
02:46PM 21.7508 -72.2147 137° Southeast 199 229 2,400  Level Miami Center
02:47PM 21.7206 -72.1844 137° Southeast 179 206 9,000 1,680 Climbing Miami Center
02:48PM 21.6861 -72.1456 134° Southeast 173 199 5,800 -780 Descending Miami Center
02:49PM 21.6514 -72.1067 134° Southeast 173 199 7,500 1,620 Climbing Miami Center
02:50PM 21.6125 -72.0656 135° Southeast 179 206 9,100 1,500 Climbing Miami Center
02:51PM 21.5421 -72.0088 137° Southeast  Level FlightAware Approximate
02:51PM 21.5758 -72.0267 135° Southeast 179 206 10,600  Level Miami Center
02:52PM 21.5392 -71.9858 134° Southeast 179 206 12,100 1,380 Climbing Miami Center
02:53PM 21.4981 -71.9447 137° Southeast 190 219 13,400 1,200 Climbing Miami Center
02:54PM 21.4572 -71.8994 134° Southeast 195 224 14,600 1,200 Climbing Miami Center
02:55PM 21.4161 -71.8564 136° Southeast 201 231 15,800 1,080 Climbing Miami Center
02:56PM 21.3728 -71.8092 135° Southeast 207 238 16,800 600 Climbing Miami Center
02:57PM 21.3275 -71.7617 136° Southeast 213 245 17,000 60 Climbing Miami Center
02:58PM 21.2756 -71.7058 135° Southeast 238 274 17,000  Level Miami Center
02:59PM 21.2214 -71.6503 136° Southeast 258 297 17,000  Level Miami Center
03:00PM 21.1650 -71.5878 134° Southeast 273 314 17,000  Level Miami Center
03:01PM 21.1108 -71.5300 135° Southeast 278 320 17,000  Level Miami Center
03:02PM 21.0547 -71.4700 135° Southeast 278 320 17,000  Level Miami Center
03:03PM 20.9983 -71.4122 136° Southeast 283 326 17,000  Level Miami Center
03:04PM 20.9419 -71.3522 135° Southeast 283 326 17,000  Level Miami Center
03:05PM 20.8858 -71.2925 135° Southeast 283 326 17,000  Level Miami Center
03:06PM 20.8292 -71.2306 134° Southeast 283 326 17,000  Level Miami Center
03:07PM 20.7728 -71.1708 135° Southeast 283 326 17,000  Level Miami Center
03:08PM 20.7164 -71.1133 136° Southeast 283 326 17,000  Level Miami Center
03:09PM 20.6600 -71.0536 135° Southeast 283 326 17,000  Level Miami Center
03:10PM 20.6056 -70.9917 133° Southeast 283 326 17,000  Level Miami Center
03:11PM 20.5472 -70.9367 139° Southeast 283 326 17,000  Level Miami Center
03:12PM 20.4906 -70.8728 133° Southeast 288 331 17,000  Level Miami Center
03:13PM 20.4342 -70.8133 135° Southeast 288 331 17,000  Level Miami Center
03:15PM 20.3485 -70.7611 163° South  Level FlightAware Approximate
03:22PM 19.9830 -70.6422 163° South  Level FlightAware Approximate
03:23PM 19.9307 -70.6252 163° South  Level FlightAware Approximate
03:24PM 19.8785 -70.6083 163° South  Level FlightAware Approximate
03:25PM 19.8263 -70.5914 163° South  Level FlightAware Approximate
03:26PM 19.7740 -70.5744 163° South  Level FlightAware Approximate
03:27PM 19.7250 -70.5500 148° Southeast  Level FlightAware Approximate
03:28PM 19.6788 -70.5192 148° Southeast  Level FlightAware Approximate
03:29PM 19.6326 -70.4883 148° Southeast  Level FlightAware Approximate
03:30PM 19.5863 -70.4575 148° Southeast  Level FlightAware Approximate
03:31PM 19.5404 -70.4261 145° Southeast  Level FlightAware Approximate
03:32PM 19.4958 -70.3927 145° Southeast  Level FlightAware Approximate
03:33PM 19.4513 -70.3593 145° Southeast  Level FlightAware Approximate
03:34PM 19.4065 -70.3261 146° Southeast  Level FlightAware Approximate
03:35PM 19.3611 -70.2940 146° Southeast  Level FlightAware Approximate
03:36PM 19.3156 -70.2619 146° Southeast  Level FlightAware Approximate
03:37PM 19.2702 -70.2298 146° Southeast  Level FlightAware Approximate
03:38PM 19.2248 -70.1978 146° Southeast  Level FlightAware Approximate
03:39PM 19.1793 -70.1657 146° Southeast  Level FlightAware Approximate
03:40PM 19.1339 -70.1337 146° Southeast  Level FlightAware Approximate
03:41PM 19.0855 -70.1070 148° Southeast  Level FlightAware Approximate
03:42PM 19.0393 -70.0762 148° Southeast  Level FlightAware Approximate
03:43PM 18.9931 -70.0454 148° Southeast  Level FlightAware Approximate
03:44PM 18.9470 -70.0145 146° Southeast  Level FlightAware Approximate
03:45PM 18.9015 -69.9827 146° Southeast  Level FlightAware Approximate
03:46PM 18.8559 -69.9508 146° Southeast  Level FlightAware Approximate
03:47PM 18.8104 -69.9189 146° Southeast  Level FlightAware Approximate
03:48PM 18.7646 -69.8875 148° Southeast  Level FlightAware Approximate
03:49PM 18.7185 -69.8567 148° Southeast  Level FlightAware Approximate
03:50PM 18.6723 -69.8260 148° Southeast  Level FlightAware Approximate
03:51PM 18.6261 -69.7952 148° Southeast  Level FlightAware Approximate
03:52PM 18.5805 -69.7638 137° Southeast  Level FlightAware Approximate
03:53PM 18.5376 -69.7282 145° Southeast  Level FlightAware Approximate
03:54PM 18.4927 -69.6956 150° Southeast  Level FlightAware Approximate
03:55PM 18.4452 -69.6671 150° Southeast  Level FlightAware Approximate
03:56PM 18.4297 -69.6689 150° Southeast  Level Estimated
03:57PM 18.4297 -69.6689 150° Southeast  Level Estimated
03:58PM 18.4297 -69.6689 150° Southeast  Level Estimated
03:59PM 18.4297 -69.6689 150° Southeast  Level Estimated
04:00PM 18.4297 -69.6689 150° Southeast  Level Estimated
04:01PM 18.4297 -69.6689 150° Southeast  Level Estimated
04:02PM 18.4297 -69.6689 150° Southeast  Level Estimated
04:03PM 18.4297 -69.6689 150° Southeast  Level Estimated
04:04PM 18.4297 -69.6689 150° Southeast  Level Estimated
04:05PM 18.4297 -69.6689 150° Southeast  Level Estimated
04:06PM 18.4297 -69.6689 150° Southeast  Level Estimated
04:07PM 18.4297 -69.6689 150° Southeast  Level Estimated
04:08PM 18.4297 -69.6689 150° Southeast  Level Estimated
04:09PM 18.4297 -69.6689 150° Southeast  Level Estimated
04:10PM 18.4297 -69.6689 150° Southeast  Level Estimated
04:11PM 18.4297 -69.6689 150° Southeast  Level Estimated
04:12PM 18.4297 -69.6689 150° Southeast  Level Estimated
04:13PM 18.4297 -69.6689 150° Southeast  Level Estimated
04:14PM 18.4297 -69.6689 150° Southeast  Level Estimated
04:15PM 18.4297 -69.6689 150° Southeast  Level Estimated
04:16PM 18.4297 -69.6689 150° Southeast  Level Estimated
04:17PM 18.4297 -69.6689 150° Southeast  Level Estimated
04:18PM 18.4297 -69.6689 150° Southeast  Level Estimated